createdAt,value
2023-02-28T00:00:18.016Z,1001.42
2023-02-28T00:01:18.024Z,1001.37
2023-02-28T00:02:18.103Z,1001.38
2023-02-28T00:03:18.017Z,1001.40
2023-02-28T00:04:17.973Z,1001.34
2023-02-28T00:05:17.951Z,1001.38
2023-02-28T00:06:17.951Z,1001.34
2023-02-28T00:07:17.933Z,1001.38
2023-02-28T00:08:17.938Z,1001.37
2023-02-28T00:09:17.892Z,1001.37
2023-02-28T00:10:17.913Z,1001.33
2023-02-28T00:11:17.882Z,1001.31
2023-02-28T00:12:17.882Z,1001.30
2023-02-28T00:13:17.904Z,1001.33
2023-02-28T00:14:17.859Z,1001.34
2023-02-28T00:15:17.837Z,1001.29
2023-02-28T00:16:17.873Z,1001.38
2023-02-28T00:17:17.816Z,1001.30
2023-02-28T00:18:17.878Z,1001.32
2023-02-28T00:19:17.815Z,1001.30
2023-02-28T00:20:17.799Z,1001.32
2023-02-28T00:21:17.794Z,1001.32
2023-02-28T00:22:17.755Z,1001.33
2023-02-28T00:23:17.775Z,1001.30
2023-02-28T00:24:17.768Z,1001.33
2023-02-28T00:25:17.747Z,1001.30
2023-02-28T00:26:18.681Z,1001.28
2023-02-28T00:27:25.255Z,1001.34
2023-02-28T00:28:17.733Z,1001.33
2023-02-28T00:29:17.722Z,1001.34
2023-02-28T00:30:17.716Z,1001.32
2023-02-28T00:31:17.698Z,1001.33
2023-02-28T00:32:17.680Z,1001.39
2023-02-28T00:33:17.693Z,1001.34
2023-02-28T00:34:17.652Z,1001.31
2023-02-28T00:35:17.649Z,1001.35
2023-02-28T00:36:17.769Z,1001.38
2023-02-28T00:37:17.635Z,1001.35
2023-02-28T00:38:17.599Z,1001.33
2023-02-28T00:39:17.641Z,1001.32
2023-02-28T00:40:17.596Z,1001.31
2023-02-28T00:41:17.592Z,1001.36
2023-02-28T00:42:17.564Z,1001.28
2023-02-28T00:43:17.574Z,1001.30
2023-02-28T00:44:17.564Z,1001.31
2023-02-28T00:45:17.753Z,1001.32
2023-02-28T00:46:17.576Z,1001.33
2023-02-28T00:47:17.548Z,1001.30
2023-02-28T00:48:17.500Z,1001.33
2023-02-28T00:49:17.490Z,1001.31
2023-02-28T00:50:17.492Z,1001.33
2023-02-28T00:51:17.494Z,1001.32
2023-02-28T00:52:17.460Z,1001.34
2023-02-28T00:53:17.487Z,1001.33
2023-02-28T00:54:17.454Z,1001.31
2023-02-28T00:55:19.156Z,1001.30
2023-02-28T00:56:17.547Z,1001.33
2023-02-28T00:57:18.159Z,1001.30
2023-02-28T00:58:17.400Z,1001.36
2023-02-28T00:59:17.413Z,1001.30
2023-02-28T01:00:17.413Z,1001.35
2023-02-28T01:01:17.430Z,1001.36
2023-02-28T01:02:17.376Z,1001.30
2023-02-28T01:03:17.382Z,1001.29
2023-02-28T01:04:17.464Z,1001.33
2023-02-28T01:05:17.342Z,1001.32
2023-02-28T01:06:17.333Z,1001.33
2023-02-28T01:07:17.388Z,1001.34
2023-02-28T01:08:17.307Z,1001.32
2023-02-28T01:09:17.304Z,1001.30
2023-02-28T01:10:17.274Z,1001.36
2023-02-28T01:11:17.287Z,1001.29
2023-02-28T01:12:17.264Z,1001.32
2023-02-28T01:13:17.803Z,1001.28
2023-02-28T01:14:17.260Z,1001.28
2023-02-28T01:15:17.247Z,1001.26
2023-02-28T01:16:17.293Z,1001.28
2023-02-28T01:17:17.225Z,1001.26
2023-02-28T01:18:17.255Z,1001.29
2023-02-28T01:19:17.214Z,1001.27
2023-02-28T01:20:17.183Z,1001.24
2023-02-28T01:21:17.172Z,1001.25
2023-02-28T01:22:17.154Z,1001.24
2023-02-28T01:23:17.193Z,1001.21
2023-02-28T01:24:18.835Z,1001.24
2023-02-28T01:25:17.196Z,1001.22
2023-02-28T01:26:21.892Z,1001.24
2023-02-28T01:27:17.148Z,1001.21
2023-02-28T01:28:17.099Z,1001.24
2023-02-28T01:29:17.124Z,1001.24
2023-02-28T01:30:17.071Z,1001.25
2023-02-28T01:31:17.277Z,1001.22
2023-02-28T01:32:17.091Z,1001.20
2023-02-28T01:33:17.285Z,1001.22
2023-02-28T01:34:17.037Z,1001.19
2023-02-28T01:35:17.034Z,1001.22
2023-02-28T01:36:17.030Z,1001.24
2023-02-28T01:37:17.027Z,1001.17
2023-02-28T01:38:22.709Z,1001.11
2023-02-28T01:39:18.020Z,1001.12
2023-02-28T01:40:16.993Z,1001.16
2023-02-28T01:41:16.991Z,1001.13
2023-02-28T01:42:16.954Z,1001.14
2023-02-28T01:43:16.977Z,1001.09
2023-02-28T01:44:16.969Z,1001.10
2023-02-28T01:45:16.961Z,1001.07
2023-02-28T01:46:16.950Z,1001.07
2023-02-28T01:47:16.917Z,1001.09
2023-02-28T01:48:16.889Z,1001.11
2023-02-28T01:49:17.281Z,1001.09
2023-02-28T01:50:16.926Z,1001.07
2023-02-28T01:51:16.915Z,1001.05
2023-02-28T01:52:16.870Z,1001.11
2023-02-28T01:53:16.874Z,1001.04
2023-02-28T01:54:17.781Z,1001.08
2023-02-28T01:55:16.893Z,1001.01
2023-02-28T01:56:16.930Z,1000.99
2023-02-28T01:57:16.823Z,1001.01
2023-02-28T01:58:17.461Z,1001.00
2023-02-28T01:59:16.788Z,1001.03
2023-02-28T02:00:16.807Z,1001.02
2023-02-28T02:01:16.921Z,1001.02
2023-02-28T02:02:16.766Z,1000.99
2023-02-28T02:03:17.438Z,1001.03
2023-02-28T02:04:16.787Z,1001.00
2023-02-28T02:05:16.708Z,1000.97
2023-02-28T02:06:16.893Z,1000.97
2023-02-28T02:07:16.739Z,1000.98
2023-02-28T02:08:16.720Z,1000.98
2023-02-28T02:09:16.710Z,1001.04
2023-02-28T02:10:16.691Z,1000.97
2023-02-28T02:11:16.728Z,1000.96
2023-02-28T02:12:16.661Z,1000.92
2023-02-28T02:13:16.679Z,1000.90
2023-02-28T02:14:16.663Z,1000.97
2023-02-28T02:15:16.619Z,1000.89
2023-02-28T02:16:16.673Z,1000.89
2023-02-28T02:17:16.802Z,1000.93
2023-02-28T02:18:16.628Z,1000.89
2023-02-28T02:19:16.590Z,1000.93
2023-02-28T02:20:16.577Z,1000.94
2023-02-28T02:21:16.592Z,1000.86
2023-02-28T02:22:16.628Z,1000.86
2023-02-28T02:23:16.640Z,1000.87
2023-02-28T02:24:16.555Z,1000.89
2023-02-28T02:25:16.520Z,1000.82
2023-02-28T02:26:16.573Z,1000.82
2023-02-28T02:27:16.489Z,1000.84
2023-02-28T02:28:16.502Z,1000.87
2023-02-28T02:29:16.498Z,1000.81
2023-02-28T02:30:18.148Z,1000.79
2023-02-28T02:31:16.524Z,1000.83
2023-02-28T02:32:16.491Z,1000.80
2023-02-28T02:33:16.449Z,1000.81
2023-02-28T02:34:16.422Z,1000.79
2023-02-28T02:35:16.780Z,1000.80
2023-02-28T02:36:16.424Z,1000.86
2023-02-28T02:37:16.408Z,1000.82
2023-02-28T02:38:16.458Z,1000.80
2023-02-28T02:39:16.371Z,1000.78
2023-02-28T02:40:16.389Z,1000.79
2023-02-28T02:41:16.365Z,1000.80
2023-02-28T02:42:16.361Z,1000.82
2023-02-28T02:43:16.340Z,1000.79
2023-02-28T02:44:16.800Z,1000.79
2023-02-28T02:45:16.341Z,1000.81
2023-02-28T02:46:16.393Z,1000.78
2023-02-28T02:47:16.319Z,1000.81
2023-02-28T02:48:16.319Z,1000.92
2023-02-28T02:49:16.280Z,1000.86
2023-02-28T02:50:16.419Z,1000.79
2023-02-28T02:51:16.309Z,1000.79
2023-02-28T02:52:16.250Z,1000.79
2023-02-28T02:53:16.220Z,1000.84
2023-02-28T02:54:16.249Z,1000.77
2023-02-28T02:55:16.209Z,1000.81
2023-02-28T02:56:16.316Z,1000.78
2023-02-28T02:57:16.190Z,1000.79
2023-02-28T02:58:16.213Z,1000.75
2023-02-28T02:59:16.193Z,1000.81
2023-02-28T03:00:16.209Z,1000.79
2023-02-28T03:01:16.347Z,1000.80
2023-02-28T03:02:16.188Z,1000.85
2023-02-28T03:03:16.122Z,1000.83
2023-02-28T03:04:16.156Z,1000.85
2023-02-28T03:05:17.110Z,1000.83
2023-02-28T03:06:16.119Z,1000.84
2023-02-28T03:07:16.118Z,1000.81
2023-02-28T03:08:16.101Z,1000.85
2023-02-28T03:09:16.059Z,1000.78
2023-02-28T03:10:16.093Z,1000.78
2023-02-28T03:11:16.104Z,1000.80
2023-02-28T03:12:16.093Z,1000.76
2023-02-28T03:13:16.034Z,1000.80
2023-02-28T03:14:16.043Z,1000.83
2023-02-28T03:15:16.029Z,1000.78
2023-02-28T03:16:16.082Z,1000.76
2023-02-28T03:17:16.042Z,1000.79
2023-02-28T03:18:16.050Z,1000.77
2023-02-28T03:19:15.973Z,1000.76
2023-02-28T03:20:15.970Z,1000.76
2023-02-28T03:21:15.972Z,1000.75
2023-02-28T03:22:15.985Z,1000.79
2023-02-28T03:23:15.944Z,1000.83
2023-02-28T03:24:15.932Z,1000.82
2023-02-28T03:25:15.903Z,1000.78
2023-02-28T03:26:15.976Z,1000.81
2023-02-28T03:27:15.996Z,1000.77
2023-02-28T03:28:15.926Z,1000.73
2023-02-28T03:29:15.875Z,1000.76
2023-02-28T03:30:15.896Z,1000.74
2023-02-28T03:31:15.874Z,1000.76
2023-02-28T03:32:15.993Z,1000.71
2023-02-28T03:33:15.829Z,1000.67
2023-02-28T03:34:15.846Z,1000.72
2023-02-28T03:35:15.808Z,1000.76
2023-02-28T03:36:15.829Z,1000.72
2023-02-28T03:37:15.868Z,1000.77
2023-02-28T03:38:15.868Z,1000.73
2023-02-28T03:39:15.771Z,1000.77
2023-02-28T03:40:15.816Z,1000.77
2023-02-28T03:41:15.830Z,1000.79
2023-02-28T03:42:17.456Z,1000.79
2023-02-28T03:43:15.752Z,1000.78
2023-02-28T03:44:15.745Z,1000.79
2023-02-28T03:45:15.700Z,1000.82
2023-02-28T03:46:15.754Z,1000.87
2023-02-28T03:47:15.708Z,1000.77
2023-02-28T03:48:15.710Z,1000.78
2023-02-28T03:49:15.657Z,1000.80
2023-02-28T03:50:15.686Z,1000.82
2023-02-28T03:51:15.648Z,1000.82
2023-02-28T03:52:15.733Z,1000.76
2023-02-28T03:53:15.669Z,1000.76
2023-02-28T03:54:15.664Z,1000.81
2023-02-28T03:55:15.664Z,1000.77
2023-02-28T03:56:15.636Z,1000.81
2023-02-28T03:57:15.622Z,1000.74
2023-02-28T03:58:15.588Z,1000.79
2023-02-28T03:59:15.600Z,1000.75
2023-02-28T04:00:15.576Z,1000.82
2023-02-28T04:01:15.551Z,1000.77
2023-02-28T04:02:15.552Z,1000.76
2023-02-28T04:03:15.539Z,1000.73
2023-02-28T04:04:15.551Z,1000.75
2023-02-28T04:05:15.549Z,1000.76
2023-02-28T04:06:15.536Z,1000.83
2023-02-28T04:07:15.489Z,1000.79
2023-02-28T04:08:15.497Z,1000.83
2023-02-28T04:09:46.888Z,1000.85
2023-02-28T04:10:46.837Z,1000.80
2023-02-28T04:11:46.860Z,1000.80
2023-02-28T04:12:46.857Z,1000.81
2023-02-28T04:13:47.695Z,1000.83
2023-02-28T04:14:46.825Z,1000.84
2023-02-28T04:15:46.864Z,1000.84
2023-02-28T04:16:46.925Z,1000.86
2023-02-28T04:17:46.830Z,1000.92
2023-02-28T04:18:46.751Z,1000.83
2023-02-28T04:19:46.755Z,1000.88
2023-02-28T04:20:46.725Z,1000.82
2023-02-28T04:21:46.780Z,1000.79
2023-02-28T04:22:46.711Z,1000.83
2023-02-28T04:23:46.719Z,1000.83
2023-02-28T04:24:46.716Z,1000.83
2023-02-28T04:25:46.697Z,1000.89
2023-02-28T04:26:46.680Z,1000.82
2023-02-28T04:27:46.707Z,1000.84
2023-02-28T04:28:46.658Z,1000.80
2023-02-28T04:29:46.665Z,1000.86
2023-02-28T04:30:46.615Z,1000.80
2023-02-28T04:31:46.685Z,1000.81
2023-02-28T04:32:46.616Z,1000.84
2023-02-28T04:33:46.636Z,1000.85
2023-02-28T04:34:46.588Z,1000.86
2023-02-28T04:35:46.614Z,1000.90
2023-02-28T04:36:46.567Z,1000.86
2023-02-28T04:37:46.608Z,1000.82
2023-02-28T04:38:46.546Z,1000.89
2023-02-28T04:39:46.549Z,1000.80
2023-02-28T04:40:46.527Z,1000.87
2023-02-28T04:41:46.539Z,1000.90
2023-02-28T04:42:46.517Z,1000.85
2023-02-28T04:43:46.584Z,1000.86
2023-02-28T04:44:46.496Z,1000.85
2023-02-28T04:45:46.510Z,1000.87
2023-02-28T04:46:46.464Z,1000.85
2023-02-28T04:47:46.465Z,1000.87
2023-02-28T04:48:46.433Z,1001.00
2023-02-28T04:49:46.484Z,1000.91
2023-02-28T04:50:46.428Z,1000.87
2023-02-28T04:51:46.452Z,1000.88
2023-02-28T04:52:46.406Z,1000.92
2023-02-28T04:53:46.474Z,1000.94
2023-02-28T04:54:46.373Z,1000.94
2023-02-28T04:55:46.387Z,1000.91
2023-02-28T04:56:46.385Z,1000.98
2023-02-28T04:57:46.371Z,1001.00
2023-02-28T04:58:46.345Z,1000.92
2023-02-28T04:59:46.357Z,1000.98
2023-02-28T05:00:46.344Z,1000.89
2023-02-28T05:01:46.303Z,1001.02
2023-02-28T05:02:46.319Z,1000.96
2023-02-28T05:03:46.315Z,1000.97
2023-02-28T05:04:46.390Z,1000.97
2023-02-28T05:05:46.275Z,1000.97
2023-02-28T05:06:46.275Z,1001.01
2023-02-28T05:07:46.248Z,1001.02
2023-02-28T05:08:46.255Z,1001.03
2023-02-28T05:09:46.229Z,1001.00
2023-02-28T05:10:46.232Z,1001.01
2023-02-28T05:11:46.215Z,1001.03
2023-02-28T05:12:46.236Z,1001.07
2023-02-28T05:13:46.199Z,1001.03
2023-02-28T05:14:46.189Z,1001.04
2023-02-28T05:15:46.187Z,1001.05
2023-02-28T05:16:46.121Z,1001.07
2023-02-28T05:17:46.165Z,1001.05
2023-02-28T05:18:46.225Z,1001.06
2023-02-28T05:19:46.132Z,1001.07
2023-02-28T05:20:46.094Z,1001.03
2023-02-28T05:21:46.062Z,1001.12
2023-02-28T05:22:46.130Z,1001.05
2023-02-28T05:23:48.133Z,1001.04
2023-02-28T05:24:46.136Z,1001.08
2023-02-28T05:25:46.072Z,1001.11
2023-02-28T05:26:46.078Z,1001.06
2023-02-28T05:27:46.041Z,1001.11
2023-02-28T05:28:46.053Z,1001.12
2023-02-28T05:29:46.022Z,1001.11
2023-02-28T05:30:46.045Z,1001.08
2023-02-28T05:31:46.304Z,1001.11
2023-02-28T05:32:46.010Z,1001.11
2023-02-28T05:33:45.974Z,1001.09
2023-02-28T05:34:45.934Z,1001.13
2023-02-28T05:35:46.022Z,1001.13
2023-02-28T05:36:45.979Z,1001.07
2023-02-28T05:37:45.952Z,1001.14
2023-02-28T05:38:45.953Z,1001.15
2023-02-28T05:39:45.866Z,1001.20
2023-02-28T05:40:45.902Z,1001.19
2023-02-28T05:41:45.873Z,1001.20
2023-02-28T05:42:45.850Z,1001.23
2023-02-28T05:43:45.833Z,1001.24
2023-02-28T05:44:45.840Z,1001.21
2023-02-28T05:45:45.874Z,1001.18
2023-02-28T05:46:45.812Z,1001.23
2023-02-28T05:47:45.792Z,1001.25
2023-02-28T05:48:45.872Z,1001.21
2023-02-28T05:49:45.765Z,1001.26
2023-02-28T05:50:45.783Z,1001.28
2023-02-28T05:51:45.784Z,1001.24
2023-02-28T05:52:45.773Z,1001.25
2023-02-28T05:53:45.758Z,1001.27
2023-02-28T05:54:45.815Z,1001.26
2023-02-28T05:55:45.712Z,1001.28
2023-02-28T05:56:45.752Z,1001.32
2023-02-28T05:57:45.703Z,1001.30
2023-02-28T05:58:45.725Z,1001.27
2023-02-28T05:59:45.675Z,1001.30
2023-02-28T06:00:45.697Z,1001.28
2023-02-28T06:01:45.656Z,1001.30
2023-02-28T06:02:45.657Z,1001.33
2023-02-28T06:03:45.710Z,1001.35
2023-02-28T06:04:45.666Z,1001.37
2023-02-28T06:05:45.597Z,1001.37
2023-02-28T06:06:45.615Z,1001.35
2023-02-28T06:07:45.614Z,1001.41
2023-02-28T06:08:45.661Z,1001.34
2023-02-28T06:09:45.566Z,1001.37
2023-02-28T06:10:45.856Z,1001.42
2023-02-28T06:11:45.546Z,1001.39
2023-02-28T06:12:45.578Z,1001.39
2023-02-28T06:13:45.538Z,1001.38
2023-02-28T06:14:45.686Z,1001.41
2023-02-28T06:15:45.522Z,1001.43
2023-02-28T06:16:45.602Z,1001.46
2023-02-28T06:17:45.536Z,1001.47
2023-02-28T06:18:45.499Z,1001.49
2023-02-28T06:19:45.470Z,1001.47
2023-02-28T06:20:45.489Z,1001.49
2023-02-28T06:21:45.446Z,1001.50
2023-02-28T06:22:45.477Z,1001.48
2023-02-28T06:23:45.431Z,1001.47
2023-02-28T06:24:45.438Z,1001.47
2023-02-28T06:25:45.437Z,1001.55
2023-02-28T06:26:45.516Z,1001.53
2023-02-28T06:27:45.397Z,1001.46
2023-02-28T06:28:45.400Z,1001.52
2023-02-28T06:29:45.380Z,1001.55
2023-02-28T06:30:46.556Z,1001.54
2023-02-28T06:31:45.435Z,1001.54
2023-02-28T06:32:45.379Z,1001.55
2023-02-28T06:33:45.370Z,1001.55
2023-02-28T06:34:46.300Z,1001.54
2023-02-28T06:35:45.338Z,1001.57
2023-02-28T06:36:47.080Z,1001.61
2023-02-28T06:37:45.326Z,1001.63
2023-02-28T06:38:45.323Z,1001.66
2023-02-28T06:39:45.280Z,1001.65
2023-02-28T06:40:45.307Z,1001.66
2023-02-28T06:41:54.849Z,1001.67
2023-02-28T06:42:46.269Z,1001.59
2023-02-28T06:43:45.240Z,1001.59
2023-02-28T06:44:45.273Z,1001.59
2023-02-28T06:45:45.246Z,1001.61
2023-02-28T06:46:45.222Z,1001.60
2023-02-28T06:47:45.192Z,1001.63
2023-02-28T06:48:45.352Z,1001.63
2023-02-28T06:49:45.181Z,1001.66
2023-02-28T06:50:45.173Z,1001.66
2023-02-28T06:51:45.152Z,1001.61
2023-02-28T06:52:45.164Z,1001.66
2023-02-28T06:53:45.131Z,1001.68
2023-02-28T06:54:45.167Z,1001.66
2023-02-28T06:55:45.112Z,1001.67
2023-02-28T06:56:45.175Z,1001.69
2023-02-28T06:57:45.096Z,1001.72
2023-02-28T06:58:45.112Z,1001.71
2023-02-28T06:59:45.063Z,1001.78
2023-02-28T07:00:45.323Z,1001.81
2023-02-28T07:01:45.128Z,1001.80
2023-02-28T07:02:45.068Z,1001.84
2023-02-28T07:03:45.040Z,1001.84
2023-02-28T07:04:45.088Z,1001.82
2023-02-28T07:05:45.011Z,1001.85
2023-02-28T07:06:45.040Z,1001.81
2023-02-28T07:07:45.000Z,1001.86
2023-02-28T07:08:45.007Z,1001.82
2023-02-28T07:09:44.968Z,1001.84
2023-02-28T07:10:44.968Z,1001.88
2023-02-28T07:11:44.953Z,1001.85
2023-02-28T07:12:44.958Z,1001.88
2023-02-28T07:13:44.929Z,1001.92
2023-02-28T07:14:45.106Z,1001.91
2023-02-28T07:15:44.943Z,1001.91
2023-02-28T07:16:44.906Z,1001.93
2023-02-28T07:17:44.886Z,1001.87
2023-02-28T07:18:44.896Z,1001.96
2023-02-28T07:19:45.358Z,1001.90
2023-02-28T07:20:44.878Z,1001.93
2023-02-28T07:21:44.848Z,1001.96
2023-02-28T07:22:44.845Z,1001.93
2023-02-28T07:23:44.855Z,1001.94
2023-02-28T07:24:44.839Z,1001.94
2023-02-28T07:25:45.806Z,1001.91
2023-02-28T07:26:44.914Z,1001.99
2023-02-28T07:27:44.813Z,1001.93
2023-02-28T07:28:44.787Z,1001.95
2023-02-28T07:29:44.764Z,1001.96
2023-02-28T07:30:44.788Z,1001.99
2023-02-28T07:31:44.886Z,1001.95
2023-02-28T07:32:45.272Z,1001.94
2023-02-28T07:33:44.720Z,1001.95
2023-02-28T07:34:44.836Z,1001.93
2023-02-28T07:35:44.776Z,1001.96
2023-02-28T07:36:44.709Z,1002.01
2023-02-28T07:37:44.678Z,1001.95
2023-02-28T07:38:47.731Z,1001.96
2023-02-28T07:39:44.678Z,1001.96
2023-02-28T07:40:44.683Z,1001.93
2023-02-28T07:41:44.737Z,1001.97
2023-02-28T07:42:44.653Z,1001.95
2023-02-28T07:43:44.669Z,1001.97
2023-02-28T07:44:44.630Z,1001.95
2023-02-28T07:45:44.600Z,1001.96
2023-02-28T07:46:44.658Z,1001.95
2023-02-28T07:47:44.788Z,1001.96
2023-02-28T07:48:44.617Z,1001.95
2023-02-28T07:49:44.572Z,1001.98
2023-02-28T07:50:44.594Z,1001.98
2023-02-28T07:51:44.557Z,1001.97
2023-02-28T07:52:44.559Z,1001.99
2023-02-28T07:53:44.596Z,1002.00
2023-02-28T07:54:44.533Z,1001.99
2023-02-28T07:55:44.561Z,1001.90
2023-02-28T07:56:44.595Z,1001.95
2023-02-28T07:57:44.495Z,1001.91
2023-02-28T07:58:45.035Z,1001.90
2023-02-28T07:59:46.113Z,1001.92
2023-02-28T08:00:44.561Z,1001.99
2023-02-28T08:01:45.135Z,1001.89
2023-02-28T08:02:44.460Z,1001.93
2023-02-28T08:03:44.456Z,1001.96
2023-02-28T08:04:44.496Z,1001.95
2023-02-28T08:05:44.427Z,1001.94
2023-02-28T08:06:44.427Z,1001.99
2023-02-28T08:07:44.406Z,1001.94
2023-02-28T08:08:44.385Z,1001.93
2023-02-28T08:09:44.436Z,1001.90
2023-02-28T08:10:44.795Z,1001.89
2023-02-28T08:11:44.365Z,1001.92
2023-02-28T08:12:44.344Z,1001.87
2023-02-28T08:13:44.372Z,1001.86
2023-02-28T08:14:44.346Z,1001.93
2023-02-28T08:15:44.338Z,1001.86
2023-02-28T08:16:44.316Z,1001.86
2023-02-28T08:17:44.346Z,1001.96
2023-02-28T08:18:44.296Z,1001.90
2023-02-28T08:19:44.335Z,1001.92
2023-02-28T08:20:44.275Z,1001.93
2023-02-28T08:21:44.274Z,1001.94
2023-02-28T08:22:45.985Z,1001.94
2023-02-28T08:23:44.250Z,1001.94
2023-02-28T08:24:44.271Z,1001.95
2023-02-28T08:25:44.225Z,1001.97
2023-02-28T08:26:48.943Z,1001.98
2023-02-28T08:27:44.196Z,1002.02
2023-02-28T08:28:44.173Z,1002.04
2023-02-28T08:29:44.205Z,1001.95
2023-02-28T08:30:44.387Z,1001.95
2023-02-28T08:31:44.317Z,1001.95
2023-02-28T08:32:44.293Z,1001.95
2023-02-28T08:33:44.167Z,1001.92
2023-02-28T08:34:45.008Z,1001.89
2023-02-28T08:35:44.216Z,1001.90
2023-02-28T08:36:44.289Z,1001.86
2023-02-28T08:37:44.093Z,1001.85
2023-02-28T08:38:44.077Z,1001.86
2023-02-28T08:39:44.076Z,1001.88
2023-02-28T08:40:44.055Z,1001.86
2023-02-28T08:41:44.065Z,1001.88
2023-02-28T08:42:44.077Z,1001.83
2023-02-28T08:43:44.044Z,1001.80
2023-02-28T08:44:44.014Z,1001.84
2023-02-28T08:45:44.116Z,1001.80
2023-02-28T08:46:43.994Z,1001.87
2023-02-28T08:47:44.004Z,1001.84
2023-02-28T08:48:43.986Z,1001.83
2023-02-28T08:49:43.993Z,1001.83
2023-02-28T08:50:48.393Z,1001.86
2023-02-28T08:51:44.959Z,1001.87
2023-02-28T08:52:44.933Z,1001.86
2023-02-28T08:53:43.939Z,1001.84
2023-02-28T08:54:43.914Z,1001.85
2023-02-28T08:55:43.909Z,1001.85
2023-02-28T08:56:43.968Z,1001.90
2023-02-28T08:57:43.968Z,1001.83
2023-02-28T08:58:44.113Z,1001.86
2023-02-28T08:59:43.870Z,1001.84
2023-02-28T09:00:43.878Z,1001.92
2023-02-28T09:01:43.871Z,1001.87
2023-02-28T09:02:43.848Z,1001.87
2023-02-28T09:03:43.877Z,1001.89
2023-02-28T09:04:43.825Z,1001.88
2023-02-28T09:05:43.798Z,1001.93
2023-02-28T09:06:43.818Z,1001.92
2023-02-28T09:07:43.777Z,1001.86
2023-02-28T09:08:43.966Z,1001.89
2023-02-28T09:10:40.437Z,1001.88
2023-02-28T09:11:40.439Z,1001.85
2023-02-28T09:12:40.429Z,1001.84
2023-02-28T09:13:41.408Z,1001.85
2023-02-28T09:14:40.397Z,1001.90
2023-02-28T09:15:40.417Z,1001.80
2023-02-28T09:16:40.379Z,1001.88
2023-02-28T09:17:40.367Z,1001.83
2023-02-28T09:18:40.389Z,1001.80
2023-02-28T09:19:40.398Z,1001.78
2023-02-28T09:20:40.319Z,1001.77
2023-02-28T09:21:40.340Z,1001.74
2023-02-28T09:22:40.394Z,1001.75
2023-02-28T09:23:40.317Z,1001.75
2023-02-28T09:25:40.393Z,1001.77
2023-02-28T09:26:43.179Z,1001.73
2023-02-28T09:27:42.436Z,1001.78
2023-02-28T09:28:40.246Z,1001.77
2023-02-28T09:29:40.257Z,1001.75
2023-02-28T09:30:40.217Z,1001.72
2023-02-28T09:31:40.369Z,1001.70
2023-02-28T09:32:40.208Z,1001.71
2023-02-28T09:33:40.200Z,1001.74
2023-02-28T09:34:40.319Z,1001.70
2023-02-28T09:35:40.209Z,1001.62
2023-02-28T09:36:45.579Z,1001.70
2023-02-28T09:37:41.191Z,1001.77
2023-02-28T09:38:40.184Z,1001.75
2023-02-28T09:39:40.166Z,1001.78
2023-02-28T09:40:40.143Z,1001.75
2023-02-28T09:41:40.130Z,1001.79
2023-02-28T09:42:40.183Z,1001.82
2023-02-28T09:43:40.176Z,1001.81
2023-02-28T09:44:40.095Z,1001.81
2023-02-28T09:45:40.089Z,1001.77
2023-02-28T09:46:40.205Z,1001.81
2023-02-28T09:47:40.076Z,1001.80
2023-02-28T09:48:41.183Z,1001.80
2023-02-28T09:49:40.096Z,1001.82
2023-02-28T09:50:40.046Z,1001.81
2023-02-28T09:51:40.036Z,1001.83
2023-02-28T09:52:40.023Z,1001.83
2023-02-28T09:53:40.170Z,1001.83
2023-02-28T09:54:39.983Z,1001.82
2023-02-28T09:55:46.673Z,1001.81
2023-02-28T09:56:41.005Z,1001.77
2023-02-28T09:57:39.968Z,1001.79
2023-02-28T09:58:39.953Z,1001.79
2023-02-28T09:59:39.962Z,1001.80
2023-02-28T10:00:39.941Z,1001.78
2023-02-28T10:01:39.958Z,1001.82
2023-02-28T10:02:39.920Z,1001.81
2023-02-28T10:03:39.921Z,1001.72
2023-02-28T10:04:39.887Z,1001.72
2023-02-28T10:05:39.910Z,1001.75
2023-02-28T10:06:39.864Z,1001.74
2023-02-28T10:07:39.882Z,1001.72
2023-02-28T10:08:39.856Z,1001.77
2023-02-28T10:09:39.843Z,1001.73
2023-02-28T10:10:39.812Z,1001.75
2023-02-28T10:11:39.948Z,1001.78
2023-02-28T10:12:39.796Z,1001.80
2023-02-28T10:13:39.844Z,1001.78
2023-02-28T10:14:39.772Z,1001.79
2023-02-28T10:15:39.836Z,1001.85
2023-02-28T10:16:39.783Z,1001.85
2023-02-28T10:17:49.443Z,1001.83
2023-02-28T10:18:40.733Z,1001.89
2023-02-28T10:19:39.771Z,1001.92
2023-02-28T10:20:41.436Z,1001.83
2023-02-28T10:21:39.776Z,1001.85
2023-02-28T10:22:39.703Z,1001.87
2023-02-28T10:23:39.728Z,1001.86
2023-02-28T10:24:39.660Z,1001.83
2023-02-28T10:25:39.718Z,1001.90
2023-02-28T10:26:39.719Z,1001.89
2023-02-28T10:27:41.350Z,1001.88
2023-02-28T10:28:39.623Z,1001.87
2023-02-28T10:29:39.650Z,1001.87
2023-02-28T10:30:39.633Z,1001.93
2023-02-28T10:31:39.713Z,1001.89
2023-02-28T10:32:39.583Z,1001.86
2023-02-28T10:33:39.630Z,1001.94
2023-02-28T10:34:39.572Z,1001.89
2023-02-28T10:35:40.253Z,1001.85
2023-02-28T10:36:39.544Z,1001.93
2023-02-28T10:37:39.587Z,1001.87
2023-02-28T10:38:39.531Z,1001.83
2023-02-28T10:39:39.539Z,1001.87
2023-02-28T10:40:39.556Z,1001.88
2023-02-28T10:41:39.502Z,1001.88
2023-02-28T10:42:39.531Z,1001.88
2023-02-28T10:43:39.521Z,1001.92
2023-02-28T10:44:39.492Z,1001.86
2023-02-28T10:45:39.472Z,1001.86
2023-02-28T10:46:39.502Z,1001.84
2023-02-28T10:47:39.535Z,1001.86
2023-02-28T10:48:39.434Z,1001.84
2023-02-28T10:49:39.449Z,1001.81
2023-02-28T10:50:39.486Z,1001.82
2023-02-28T10:51:39.436Z,1001.83
2023-02-28T10:52:39.389Z,1001.81
2023-02-28T10:53:57.653Z,1001.81
2023-02-28T10:54:40.374Z,1001.84
2023-02-28T10:55:39.372Z,1001.81
2023-02-28T10:56:39.441Z,1001.80
2023-02-28T10:57:39.386Z,1001.79
2023-02-28T10:58:39.334Z,1001.83
2023-02-28T10:59:39.852Z,1001.79
2023-02-28T11:00:39.290Z,1001.74
2023-02-28T11:01:39.337Z,1001.78
2023-02-28T11:02:39.452Z,1001.76
2023-02-28T11:03:39.300Z,1001.73
2023-02-28T11:04:39.351Z,1001.73
2023-02-28T11:05:39.305Z,1001.72
2023-02-28T11:06:39.227Z,1001.73
2023-02-28T11:07:50.539Z,1001.76
2023-02-28T11:08:40.221Z,1001.75
2023-02-28T11:09:39.982Z,1001.70
2023-02-28T11:10:39.206Z,1001.75
2023-02-28T11:11:39.206Z,1001.75
2023-02-28T11:12:47.027Z,1001.71
2023-02-28T11:13:40.158Z,1001.76
2023-02-28T11:14:39.240Z,1001.76
2023-02-28T11:15:39.153Z,1001.73
2023-02-28T11:16:39.161Z,1001.71
2023-02-28T11:17:39.148Z,1001.73
2023-02-28T11:18:39.128Z,1001.70
2023-02-28T11:19:40.803Z,1001.71
2023-02-28T11:20:39.110Z,1001.67
2023-02-28T11:21:39.099Z,1001.71
2023-02-28T11:22:39.101Z,1001.69
2023-02-28T11:23:39.069Z,1001.65
2023-02-28T11:24:39.100Z,1001.68
2023-02-28T11:25:39.112Z,1001.67
2023-02-28T11:26:39.085Z,1001.63
2023-02-28T11:27:39.007Z,1001.62
2023-02-28T11:28:39.024Z,1001.62
2023-02-28T11:29:39.024Z,1001.62
2023-02-28T11:30:39.043Z,1001.54
2023-02-28T11:31:39.016Z,1001.64
2023-02-28T11:32:39.054Z,1001.61
2023-02-28T11:33:39.001Z,1001.54
2023-02-28T11:34:39.032Z,1001.60
2023-02-28T11:35:38.996Z,1001.58
2023-02-28T11:36:38.943Z,1001.63
2023-02-28T11:37:38.911Z,1001.51
2023-02-28T11:38:38.908Z,1001.59
2023-02-28T11:39:39.844Z,1001.62
2023-02-28T11:40:38.919Z,1001.47
2023-02-28T11:41:41.203Z,1001.50
2023-02-28T11:42:38.905Z,1001.48
2023-02-28T11:43:38.871Z,1001.59
2023-02-28T11:44:38.865Z,1001.46
2023-02-28T11:45:38.858Z,1001.40
2023-02-28T11:46:38.901Z,1001.43
2023-02-28T11:47:38.823Z,1001.54
2023-02-28T11:48:38.832Z,1001.44
2023-02-28T11:49:38.786Z,1001.38
2023-02-28T11:50:38.809Z,1001.37
2023-02-28T11:51:38.849Z,1001.42
2023-02-28T11:52:38.788Z,1001.38
2023-02-28T11:53:38.758Z,1001.43
2023-02-28T11:54:38.785Z,1001.41
2023-02-28T11:55:38.740Z,1001.37
2023-02-28T11:56:38.972Z,1001.40
2023-02-28T11:57:38.732Z,1001.37
2023-02-28T11:58:38.706Z,1001.36
2023-02-28T11:59:38.692Z,1001.35
2023-02-28T12:00:38.752Z,1001.31
2023-02-28T12:01:38.739Z,1001.34
2023-02-28T12:02:38.748Z,1001.29
2023-02-28T12:03:38.670Z,1001.34
2023-02-28T12:04:38.695Z,1001.27
2023-02-28T12:05:38.656Z,1001.36
2023-02-28T12:06:38.648Z,1001.29
2023-02-28T12:07:38.634Z,1001.30